Time;durP1;ratioP1;P1;durP2;ratioP2;P2;SDS_P1;SDS_P2;PMS_P1;PMS_P2;Temp;Humidity;BMP_temperature;BMP_pressure;BME280_temperature;BME280_humidity;BME280_pressure;Samples;Min_cycle;Max_cycle;Signal;HPM_P1;HPM_P2
2023/01/05 00:01:01;;;;;;;16.53;7.50;;;;;;;;;;5060956;27;87954;-57
2023/01/05 00:03:30;;;;;;;9.17;5.77;;;;;;;;;;5059959;27;89343;-57
2023/01/05 00:06:01;;;;;;;9.17;6.03;;;;;;;;;;5060896;27;87124;-57
2023/01/05 00:08:29;;;;;;;13.30;6.23;;;;;;;;;;5061249;27;86998;-57
2023/01/05 00:22:32;;;;;;;42.00;25.63;;;;;;;;;;5059353;27;90166;-57
2023/01/05 00:25:01;;;;;;;40.43;21.13;;;;;;;;;;5078416;27;89882;-57
2023/01/05 00:27:40;;;;;;;34.60;20.70;;;;;;;;;;5071404;27;87074;-56
2023/01/05 00:30:09;;;;;;;36.30;19.90;;;;;;;;;;5068323;27;87082;-56
2023/01/05 00:32:37;;;;;;;26.03;17.33;;;;;;;;;;5080235;27;87610;-57
2023/01/05 00:35:06;;;;;;;24.33;16.73;;;;;;;;;;5064887;27;88799;-56
2023/01/05 00:37:35;;;;;;;22.03;14.87;;;;;;;;;;5057985;27;87259;-56
2023/01/05 00:40:03;;;;;;;24.47;14.23;;;;;;;;;;5070229;27;86254;-57
2023/01/05 00:42:31;;;;;;;23.50;12.03;;;;;;;;;;5063760;27;89276;-56
2023/01/05 00:45:01;;;;;;;22.70;11.53;;;;;;;;;;5077749;27;88963;-58
2023/01/05 00:47:29;;;;;;;19.27;11.17;;;;;;;;;;5068536;27;87979;-57
2023/01/05 00:49:58;;;;;;;14.80;10.63;;;;;;;;;;5063923;27;87129;-57
2023/01/05 00:52:26;;;;;;;14.43;9.30;;;;;;;;;;5063232;27;87922;-57
2023/01/05 00:54:54;;;;;;;16.60;10.77;;;;;;;;;;5063663;27;91128;-57
2023/01/05 00:57:23;;;;;;;12.40;8.40;;;;;;;;;;5063270;27;87319;-58
2023/01/05 00:59:51;;;;;;;14.87;7.87;;;;;;;;;;5064243;27;87389;-56
2023/01/05 01:02:21;;;;;;;10.07;6.53;;;;;;;;;;5064179;27;89328;-57
2023/01/05 01:04:49;;;;;;;11.13;7.53;;;;;;;;;;5063780;27;88344;-57
2023/01/05 01:07:18;;;;;;;10.03;6.40;;;;;;;;;;5064247;27;87071;-57
2023/01/05 01:09:46;;;;;;;13.60;6.03;;;;;;;;;;5064114;27;87145;-57
2023/01/05 01:12:14;;;;;;;12.17;6.17;;;;;;;;;;5063503;27;90332;-57
2023/01/05 01:14:43;;;;;;;9.30;5.73;;;;;;;;;;5063278;27;88890;-57
2023/01/05 01:17:11;;;;;;;9.27;5.47;;;;;;;;;;5052126;27;86904;-57
2023/01/05 01:19:40;;;;;;;8.73;5.37;;;;;;;;;;5056232;27;86972;-57
2023/01/05 01:22:09;;;;;;;6.90;4.93;;;;;;;;;;5083827;27;89182;-57
2023/01/05 01:24:37;;;;;;;8.67;5.40;;;;;;;;;;5083734;27;88943;-57
2023/01/05 01:27:05;;;;;;;6.97;4.50;;;;;;;;;;5061513;27;87088;-58
2023/01/05 01:29:34;;;;;;;7.67;4.77;;;;;;;;;;5060860;27;86316;-58
2023/01/05 01:32:02;;;;;;;5.93;4.43;;;;;;;;;;5047508;27;89031;-57
2023/01/05 01:34:30;;;;;;;5.97;4.20;;;;;;;;;;5050907;27;88660;-58
2023/01/05 01:37:00;;;;;;;6.37;3.57;;;;;;;;;;5051552;27;89431;-58
2023/01/05 01:39:27;;;;;;;5.03;3.13;;;;;;;;;;5044497;27;87766;-57
2023/01/05 01:41:55;;;;;;;5.57;3.27;;;;;;;;;;5053933;27;89292;-58
2023/01/05 01:44:43;;;;;;;7.40;3.83;;;;;;;;;;5083484;27;87605;-58
2023/01/05 01:47:11;;;;;;;4.33;2.90;;;;;;;;;;5074150;27;87017;-57
2023/01/05 01:49:39;;;;;;;3.77;2.87;;;;;;;;;;5063549;27;87016;-58
2023/01/05 01:52:09;;;;;;;3.10;2.40;;;;;;;;;;5063830;27;89423;-57
2023/01/05 01:54:37;;;;;;;3.73;3.17;;;;;;;;;;5060096;27;87298;-59
2023/01/05 01:57:06;;;;;;;26.70;16.73;;;;;;;;;;5058519;27;86927;-59
2023/01/05 01:59:34;;;;;;;49.17;33.27;;;;;;;;;;5083367;27;87800;-59
2023/01/05 02:02:02;;;;;;;42.63;27.90;;;;;;;;;;5067740;27;89865;-58
2023/01/05 02:04:31;;;;;;;35.00;24.07;;;;;;;;;;5061752;27;89958;-58
2023/01/05 02:06:59;;;;;;;31.50;22.77;;;;;;;;;;5053662;27;87141;-58
2023/01/05 02:09:29;;;;;;;52.67;27.10;;;;;;;;;;5067648;27;87088;-58
2023/01/05 02:11:59;;;;;;;45.43;23.63;;;;;;;;;;5062206;27;88244;-59
2023/01/05 02:14:28;;;;;;;44.63;24.53;;;;;;;;;;5061689;27;88991;-57
2023/01/05 02:17:00;;;;;;;45.60;23.97;;;;;;;;;;5062118;27;87056;-58
2023/01/05 02:19:47;;;;;;;49.10;22.90;;;;;;;;;;5062312;27;86293;-57
2023/01/05 02:22:22;;;;;;;38.87;22.43;;;;;;;;;;5061800;27;88081;-58
2023/01/05 02:25:05;;;;;;;37.83;23.40;;;;;;;;;;5071060;27;88666;-58
2023/01/05 02:27:43;;;;;;;36.70;20.93;;;;;;;;;;5069012;27;88018;-57
2023/01/05 02:30:17;;;;;;;33.53;17.37;;;;;;;;;;5082964;27;87062;-58
2023/01/05 02:32:49;;;;;;;29.53;18.53;;;;;;;;;;5082783;27;88914;-58
2023/01/05 02:35:18;;;;;;;33.47;18.63;;;;;;;;;;5071383;27;89222;-59
2023/01/05 02:37:48;;;;;;;34.27;20.10;;;;;;;;;;5059376;27;87125;-58
2023/01/05 02:40:18;;;;;;;37.33;19.73;;;;;;;;;;5082613;27;87110;-58
2023/01/05 02:42:47;;;;;;;21.47;13.23;;;;;;;;;;5072465;27;89080;-58
2023/01/05 02:45:15;;;;;;;32.03;16.07;;;;;;;;;;5062116;27;88032;-58
2023/01/05 02:47:44;;;;;;;27.60;16.77;;;;;;;;;;5062147;27;87019;-58
2023/01/05 02:50:15;;;;;;;27.00;15.37;;;;;;;;;;5061866;27;86979;-59
2023/01/05 02:52:46;;;;;;;22.10;14.33;;;;;;;;;;5061175;27;90263;-58
2023/01/05 02:55:15;;;;;;;31.40;15.90;;;;;;;;;;5060891;27;88761;-58
2023/01/05 02:57:49;;;;;;;21.93;14.23;;;;;;;;;;5060290;27;87168;-58
2023/01/05 03:00:18;;;;;;;31.17;16.07;;;;;;;;;;5061092;27;87202;-58
2023/01/05 03:02:48;;;;;;;25.13;12.67;;;;;;;;;;5060305;27;88082;-59
2023/01/05 03:05:20;;;;;;;20.50;12.97;;;;;;;;;;5061304;27;87734;-59
2023/01/05 03:07:48;;;;;;;23.57;11.67;;;;;;;;;;5060764;27;86979;-58
2023/01/05 03:16:01;;;;;;;18.77;10.77;;;;;;;;;;4962762;28;89280;-58
2023/01/05 03:18:29;;;;;;;16.90;10.30;;;;;;;;;;5025685;27;88133;-57
2023/01/05 03:20:58;;;;;;;18.00;10.33;;;;;;;;;;5061021;27;86976;-56
2023/01/05 03:37:22;;;;;;;11.83;8.33;;;;;;;;;;5060752;27;89033;-57
2023/01/05 03:39:50;;;;;;;17.60;7.97;;;;;;;;;;5062065;27;86988;-58
2023/01/05 03:42:18;;;;;;;14.73;8.10;;;;;;;;;;5059857;27;87048;-58
2023/01/05 03:44:47;;;;;;;14.03;7.73;;;;;;;;;;5058920;27;89134;-58
2023/01/05 03:47:15;;;;;;;15.07;7.10;;;;;;;;;;5044362;27;88671;-57
2023/01/05 03:49:43;;;;;;;14.60;7.10;;;;;;;;;;5059632;27;88872;-57
2023/01/05 03:52:12;;;;;;;10.83;6.47;;;;;;;;;;5061454;27;87011;-58
2023/01/05 03:54:41;;;;;;;17.47;7.93;;;;;;;;;;5051875;27;87920;-59
2023/01/05 03:57:10;;;;;;;12.57;6.97;;;;;;;;;;5050321;27;87961;-58
2023/01/05 03:59:38;;;;;;;9.37;5.63;;;;;;;;;;5059422;27;86967;-58
2023/01/05 04:02:06;;;;;;;14.37;6.40;;;;;;;;;;5054655;27;86413;-57
2023/01/05 04:04:35;;;;;;;9.13;5.60;;;;;;;;;;5041265;27;89139;-57
2023/01/05 04:07:03;;;;;;;10.93;6.47;;;;;;;;;;5060918;27;87814;-57
2023/01/05 04:09:32;;;;;;;9.60;5.80;;;;;;;;;;5053667;27;88056;-58
2023/01/05 04:12:02;;;;;;;11.07;6.00;;;;;;;;;;5040837;28;87020;-58
2023/01/05 04:14:30;;;;;;;10.70;6.17;;;;;;;;;;5043314;27;88938;-57
2023/01/05 04:16:58;;;;;;;6.80;4.77;;;;;;;;;;5060550;27;89194;-58
2023/01/05 04:19:27;;;;;;;6.83;5.03;;;;;;;;;;5042129;27;87041;-58
2023/01/05 04:21:55;;;;;;;6.53;3.93;;;;;;;;;;5041590;27;87072;-58
2023/01/05 04:24:23;;;;;;;6.53;4.00;;;;;;;;;;5040613;28;89117;-58
2023/01/05 04:26:52;;;;;;;8.97;4.80;;;;;;;;;;5041703;27;87846;-58
2023/01/05 04:29:21;;;;;;;11.20;4.67;;;;;;;;;;5041903;27;87142;-58
2023/01/05 04:31:50;;;;;;;6.63;4.07;;;;;;;;;;5054797;27;87125;-58
2023/01/05 04:34:19;;;;;;;9.33;3.83;;;;;;;;;;5059333;27;89903;-57
2023/01/05 04:36:48;;;;;;;10.27;4.27;;;;;;;;;;5059397;27;89794;-57
2023/01/05 04:39:16;;;;;;;8.03;4.17;;;;;;;;;;5060836;27;87000;-57
2023/01/05 04:41:45;;;;;;;8.80;4.17;;;;;;;;;;5056181;27;87063;-59
2023/01/05 04:44:13;;;;;;;5.60;3.87;;;;;;;;;;5040797;28;89137;-58
2023/01/05 04:46:43;;;;;;;6.07;3.60;;;;;;;;;;5041558;27;88909;-58
2023/01/05 04:49:11;;;;;;;3.80;3.07;;;;;;;;;;5040454;27;87008;-57
2023/01/05 04:51:39;;;;;;;7.10;4.00;;;;;;;;;;5059377;27;86330;-57
2023/01/05 04:54:08;;;;;;;6.43;3.20;;;;;;;;;;5055601;27;89010;-58
2023/01/05 04:56:36;;;;;;;5.47;3.03;;;;;;;;;;5041062;27;88888;-58
2023/01/05 04:59:05;;;;;;;5.50;3.10;;;;;;;;;;5040963;27;88111;-58
2023/01/05 05:01:33;;;;;;;4.73;2.87;;;;;;;;;;5058539;27;87117;-58
2023/01/05 05:04:03;;;;;;;4.33;2.47;;;;;;;;;;5059801;27;89021;-58
2023/01/05 05:06:31;;;;;;;4.03;2.50;;;;;;;;;;5048893;27;87451;-58
2023/01/05 05:08:59;;;;;;;3.33;2.57;;;;;;;;;;5052446;27;87390;-57
2023/01/05 05:11:28;;;;;;;4.50;2.57;;;;;;;;;;5049426;27;87055;-58
2023/01/05 05:13:56;;;;;;;10.07;2.93;;;;;;;;;;5039796;27;89335;-57
2023/01/05 05:16:24;;;;;;;2.70;2.33;;;;;;;;;;5046735;27;87837;-59
2023/01/05 05:18:52;;;;;;;3.23;2.27;;;;;;;;;;5052881;27;87168;-57
2023/01/05 05:21:22;;;;;;;2.90;2.17;;;;;;;;;;5039488;27;87081;-57
2023/01/05 05:23:50;;;;;;;2.40;2.00;;;;;;;;;;5049834;27;88754;-58
2023/01/05 05:26:19;;;;;;;4.00;2.00;;;;;;;;;;5061185;27;89807;-58
2023/01/05 05:28:47;;;;;;;2.53;2.07;;;;;;;;;;5060940;27;87106;-58
2023/01/05 05:31:15;;;;;;;4.57;2.27;;;;;;;;;;5044208;27;87039;-58
2023/01/05 05:33:44;;;;;;;3.47;2.33;;;;;;;;;;5060656;27;87969;-59
2023/01/05 05:36:12;;;;;;;4.10;2.30;;;;;;;;;;5062382;27;87927;-57
2023/01/05 05:38:42;;;;;;;5.57;2.33;;;;;;;;;;5063319;27;87016;-58
2023/01/05 05:41:10;;;;;;;2.97;2.07;;;;;;;;;;5058109;27;86454;-57
2023/01/05 05:43:38;;;;;;;2.90;2.27;;;;;;;;;;5051840;27;89247;-57
2023/01/05 05:46:07;;;;;;;2.23;1.47;;;;;;;;;;5063040;27;87780;-57
2023/01/05 05:48:35;;;;;;;4.13;2.00;;;;;;;;;;5042701;27;88097;-58
2023/01/05 05:51:03;;;;;;;2.23;1.60;;;;;;;;;;5044136;27;87673;-57
2023/01/05 05:53:32;;;;;;;3.43;1.77;;;;;;;;;;5042486;27;88290;-58
2023/01/05 05:56:01;;;;;;;5.30;1.87;;;;;;;;;;5054064;27;89332;-57
2023/01/05 05:58:30;;;;;;;3.43;2.17;;;;;;;;;;5061258;27;87143;-58
2023/01/05 06:00:59;;;;;;;3.90;1.90;;;;;;;;;;5057795;27;87125;-58
2023/01/05 06:03:28;;;;;;;5.93;2.33;;;;;;;;;;5061385;27;89196;-57
2023/01/05 06:05:56;;;;;;;5.27;1.90;;;;;;;;;;5062437;27;89289;-58
2023/01/05 06:08:26;;;;;;;3.23;1.93;;;;;;;;;;5062413;27;87205;-58
2023/01/05 06:10:54;;;;;;;2.10;1.47;;;;;;;;;;5051853;27;87470;-57
2023/01/05 06:13:24;;;;;;;2.13;1.50;;;;;;;;;;5052684;27;90210;-57
2023/01/05 06:15:52;;;;;;;2.20;1.47;;;;;;;;;;5062405;27;88551;-58
2023/01/05 06:18:20;;;;;;;2.50;1.20;;;;;;;;;;5058507;27;87034;-57
2023/01/05 06:20:49;;;;;;;1.70;1.60;;;;;;;;;;5062976;27;87136;-58
2023/01/05 06:23:17;;;;;;;2.70;1.43;;;;;;;;;;5044433;27;89084;-57
2023/01/05 06:25:45;;;;;;;3.80;1.43;;;;;;;;;;5041507;27;89210;-58
2023/01/05 06:28:13;;;;;;;1.83;1.20;;;;;;;;;;5042058;27;87023;-58
2023/01/05 06:30:48;;;;;;;2.67;1.27;;;;;;;;;;5053330;27;87551;-57
2023/01/05 06:33:17;;;;;;;1.20;0.73;;;;;;;;;;5062066;27;89090;-58
2023/01/05 06:35:45;;;;;;;2.50;1.40;;;;;;;;;;5059067;27;88963;-58
2023/01/05 06:38:14;;;;;;;3.33;1.67;;;;;;;;;;5040943;27;87961;-58
2023/01/05 06:40:43;;;;;;;6.27;2.13;;;;;;;;;;5042122;27;87065;-58
2023/01/05 06:43:11;;;;;;;1.67;1.40;;;;;;;;;;5050234;27;87973;-58
2023/01/05 06:45:40;;;;;;;3.27;1.20;;;;;;;;;;5057654;27;87611;-58
2023/01/05 06:48:10;;;;;;;1.50;1.07;;;;;;;;;;5058404;27;86994;-58
2023/01/05 06:50:38;;;;;;;2.97;1.30;;;;;;;;;;5042043;27;87078;-58
2023/01/05 06:53:06;;;;;;;2.73;1.10;;;;;;;;;;5048830;27;89028;-58
2023/01/05 06:55:35;;;;;;;2.40;0.90;;;;;;;;;;5060423;27;88814;-58
2023/01/05 06:58:03;;;;;;;3.73;1.10;;;;;;;;;;5062128;27;87010;-57
2023/01/05 07:00:31;;;;;;;3.77;1.03;;;;;;;;;;5062149;27;87066;-58
2023/01/05 07:03:00;;;;;;;1.47;0.90;;;;;;;;;;5051917;27;88883;-58
2023/01/05 07:05:30;;;;;;;0.73;0.67;;;;;;;;;;5041498;28;89881;-58
2023/01/05 07:07:58;;;;;;;1.07;0.70;;;;;;;;;;5042062;27;87102;-57
2023/01/05 07:10:27;;;;;;;3.30;1.33;;;;;;;;;;5042599;27;87025;-58
2023/01/05 07:12:55;;;;;;;3.37;1.07;;;;;;;;;;5042333;27;87923;-58
2023/01/05 07:15:23;;;;;;;2.83;0.70;;;;;;;;;;5041392;27;89046;-58
2023/01/05 07:17:52;;;;;;;0.93;0.70;;;;;;;;;;5041684;28;86943;-58
2023/01/05 07:20:20;;;;;;;3.13;0.87;;;;;;;;;;5041367;27;86463;-58
2023/01/05 07:22:50;;;;;;;0.83;0.70;;;;;;;;;;5040531;28;89306;-58
2023/01/05 07:25:18;;;;;;;2.07;1.37;;;;;;;;;;5040949;28;87689;-58
2023/01/05 07:27:50;;;;;;;3.47;0.93;;;;;;;;;;5042081;27;88072;-58
2023/01/05 07:30:18;;;;;;;1.40;0.90;;;;;;;;;;5060176;27;87122;-59
2023/01/05 07:32:47;;;;;;;2.50;1.00;;;;;;;;;;5053721;27;89286;-58
2023/01/05 07:35:15;;;;;;;3.60;0.77;;;;;;;;;;5041223;27;89400;-59
2023/01/05 07:37:44;;;;;;;1.00;0.70;;;;;;;;;;5044309;27;87188;-58
2023/01/05 07:40:14;;;;;;;2.67;1.07;;;;;;;;;;5053189;27;87098;-58
2023/01/05 07:42:42;;;;;;;1.03;0.83;;;;;;;;;;5043161;27;87874;-58
2023/01/05 07:45:11;;;;;;;1.33;0.80;;;;;;;;;;5047546;27;86675;-58
2023/01/05 07:47:39;;;;;;;1.97;1.00;;;;;;;;;;5058703;27;87009;-57
2023/01/05 07:50:08;;;;;;;3.90;1.23;;;;;;;;;;5048628;27;87183;-58
2023/01/05 07:52:38;;;;;;;2.27;0.77;;;;;;;;;;5055879;27;93101;-58
2023/01/05 07:55:07;;;;;;;3.67;0.87;;;;;;;;;;5061069;27;87067;-58
2023/01/05 07:57:36;;;;;;;3.67;0.80;;;;;;;;;;5057582;27;86949;-57
2023/01/05 08:00:05;;;;;;;3.90;0.90;;;;;;;;;;5059900;27;87086;-58
2023/01/05 08:02:33;;;;;;;1.77;1.00;;;;;;;;;;5052654;27;88120;-57
2023/01/05 08:05:03;;;;;;;4.63;1.00;;;;;;;;;;5070995;27;88827;-57
2023/01/05 08:07:32;;;;;;;1.87;0.80;;;;;;;;;;5081442;27;86958;-59
2023/01/05 08:15:34;;;;;;;1.80;0.83;;;;;;;;;;5059870;27;88989;-56
2023/01/05 08:18:02;;;;;;;2.17;0.83;;;;;;;;;;5060677;27;87963;-57
2023/01/05 08:20:30;;;;;;;3.03;0.93;;;;;;;;;;5061194;27;86978;-57
2023/01/05 08:22:59;;;;;;;1.17;0.63;;;;;;;;;;5060733;27;87889;-57
2023/01/05 08:25:27;;;;;;;0.87;0.50;;;;;;;;;;5060729;27;88851;-57
2023/01/05 08:27:57;;;;;;;1.97;1.00;;;;;;;;;;5060905;27;87048;-57
2023/01/05 08:30:25;;;;;;;0.87;0.77;;;;;;;;;;5060518;27;87057;-57
2023/01/05 08:32:54;;;;;;;1.40;0.70;;;;;;;;;;5060384;27;89371;-57
2023/01/05 08:35:22;;;;;;;1.20;1.00;;;;;;;;;;5060956;27;87697;-57
2023/01/05 08:37:51;;;;;;;1.33;0.67;;;;;;;;;;5060729;27;87111;-57
2023/01/05 08:40:19;;;;;;;2.43;0.50;;;;;;;;;;5060456;27;87197;-57
2023/01/05 08:42:47;;;;;;;2.83;0.60;;;;;;;;;;5060148;27;90076;-57
2023/01/05 08:45:17;;;;;;;0.87;0.50;;;;;;;;;;5060508;27;89903;-57
2023/01/05 08:47:46;;;;;;;2.43;0.90;;;;;;;;;;5060814;27;87094;-57
2023/01/05 08:50:14;;;;;;;2.60;0.90;;;;;;;;;;5060950;27;87114;-57
2023/01/05 08:52:42;;;;;;;3.23;0.73;;;;;;;;;;5059648;27;89209;-57
2023/01/05 08:55:11;;;;;;;1.03;0.53;;;;;;;;;;5060656;27;88985;-58
2023/01/05 08:57:39;;;;;;;1.77;0.60;;;;;;;;;;5060022;27;87209;-58
2023/01/05 09:00:08;;;;;;;1.97;0.67;;;;;;;;;;5061677;27;86283;-57
2023/01/05 09:02:38;;;;;;;0.77;0.47;;;;;;;;;;5063561;27;87969;-58
2023/01/05 09:05:07;;;;;;;3.60;0.50;;;;;;;;;;5063478;27;87717;-57
2023/01/05 09:07:36;;;;;;;0.87;0.57;;;;;;;;;;5062981;27;87911;-57
2023/01/05 09:10:05;;;;;;;4.13;0.80;;;;;;;;;;5063282;27;87136;-57
2023/01/05 09:12:35;;;;;;;2.33;0.97;;;;;;;;;;5063311;27;89149;-57
2023/01/05 09:15:04;;;;;;;1.73;0.60;;;;;;;;;;5063432;27;88833;-57
2023/01/05 09:17:32;;;;;;;0.73;0.47;;;;;;;;;;5064022;27;86998;-57
2023/01/05 09:20:03;;;;;;;1.80;0.50;;;;;;;;;;5063788;27;87078;-57
2023/01/05 09:22:32;;;;;;;0.67;0.50;;;;;;;;;;5063540;27;88276;-57
2023/01/05 09:25:00;;;;;;;0.90;0.50;;;;;;;;;;5063611;27;87826;-58
2023/01/05 09:27:29;;;;;;;0.30;0.30;;;;;;;;;;5063706;27;86994;-57
2023/01/05 09:29:57;;;;;;;1.43;1.03;;;;;;;;;;5063437;27;87166;-57
2023/01/05 09:32:25;;;;;;;1.13;0.40;;;;;;;;;;5062458;27;87908;-57
2023/01/05 09:34:54;;;;;;;1.87;0.60;;;;;;;;;;5063823;27;90229;-57
2023/01/05 09:37:23;;;;;;;0.67;0.37;;;;;;;;;;5063144;27;87045;-58
2023/01/05 09:39:52;;;;;;;2.20;1.07;;;;;;;;;;5063913;27;87075;-57
2023/01/05 09:42:22;;;;;;;1.70;0.50;;;;;;;;;;5063444;27;89245;-58
2023/01/05 09:44:51;;;;;;;0.83;0.33;;;;;;;;;;5063317;27;87675;-58
2023/01/05 09:47:26;;;;;;;1.17;0.57;;;;;;;;;;5063659;27;86939;-58
2023/01/05 09:49:55;;;;;;;1.63;0.70;;;;;;;;;;5063721;27;86419;-58
2023/01/05 09:52:25;;;;;;;1.83;0.40;;;;;;;;;;5062935;27;88269;-57
2023/01/05 09:54:53;;;;;;;3.27;0.70;;;;;;;;;;5062778;27;87959;-58
2023/01/05 09:57:22;;;;;;;1.47;0.77;;;;;;;;;;5062424;27;88047;-58
2023/01/05 09:59:51;;;;;;;1.33;0.50;;;;;;;;;;5063196;27;87060;-58
2023/01/05 10:02:21;;;;;;;1.10;0.50;;;;;;;;;;5062887;27;88433;-58
2023/01/05 10:04:49;;;;;;;0.20;0.20;;;;;;;;;;5063166;27;88726;-58
2023/01/05 10:07:21;;;;;;;0.37;0.30;;;;;;;;;;5063250;27;87141;-58
2023/01/05 10:09:51;;;;;;;1.07;0.43;;;;;;;;;;5062717;27;87018;-58
2023/01/05 10:15:07;;;;;;;0.90;0.43;;;;;;;;;;5062819;27;88700;-58
2023/01/05 10:17:38;;;;;;;1.60;0.60;;;;;;;;;;5062542;27;87080;-58
2023/01/05 10:20:16;;;;;;;1.17;0.70;;;;;;;;;;5063072;27;87057;-58
2023/01/05 10:22:47;;;;;;;1.17;0.23;;;;;;;;;;5062079;27;90139;-58
2023/01/05 10:25:19;;;;;;;1.27;0.33;;;;;;;;;;5062632;27;87605;-58
2023/01/05 10:27:51;;;;;;;6.20;1.00;;;;;;;;;;5062793;27;87104;-58
2023/01/05 10:30:24;;;;;;;1.90;0.50;;;;;;;;;;5062897;27;87012;-58
2023/01/05 10:32:58;;;;;;;4.13;0.87;;;;;;;;;;5062483;27;89287;-59
2023/01/05 10:35:50;;;;;;;6.50;0.97;;;;;;;;;;5062742;27;88496;-58
2023/01/05 10:38:33;;;;;;;1.87;0.30;;;;;;;;;;5062817;27;87075;-58
2023/01/05 10:41:04;;;;;;;0.27;0.27;;;;;;;;;;5062407;27;86210;-58
2023/01/05 10:43:41;;;;;;;1.13;0.40;;;;;;;;;;5062407;27;88066;-58
2023/01/05 10:46:10;;;;;;;0.47;0.47;;;;;;;;;;5062405;27;88976;-58
2023/01/05 10:48:59;;;;;;;3.60;0.57;;;;;;;;;;5061797;27;87973;-58
2023/01/05 10:51:27;;;;;;;0.50;0.43;;;;;;;;;;5061984;27;87101;-58
2023/01/05 10:53:56;;;;;;;0.97;0.47;;;;;;;;;;5061710;27;88606;-58
2023/01/05 10:56:27;;;;;;;1.63;0.47;;;;;;;;;;5062065;27;88916;-58
2023/01/05 10:59:07;;;;;;;2.17;0.60;;;;;;;;;;5062257;27;86903;-58
2023/01/05 11:01:35;;;;;;;1.50;0.50;;;;;;;;;;5061885;27;87067;-58
2023/01/05 11:04:05;;;;;;;0.73;0.60;;;;;;;;;;5061416;27;89336;-58
2023/01/05 11:06:53;;;;;;;3.40;1.03;;;;;;;;;;5062026;27;87369;-58
2023/01/05 11:09:22;;;;;;;0.53;0.50;;;;;;;;;;5062115;27;87147;-58
2023/01/05 11:11:55;;;;;;;0.60;0.30;;;;;;;;;;5061715;27;87128;-58
2023/01/05 11:14:24;;;;;;;1.77;0.70;;;;;;;;;;5061110;27;89204;-58
2023/01/05 11:16:53;;;;;;;0.63;0.40;;;;;;;;;;5062267;27;90155;-58
2023/01/05 11:19:22;;;;;;;0.87;0.47;;;;;;;;;;5062236;27;87002;-58
2023/01/05 11:21:50;;;;;;;1.70;0.63;;;;;;;;;;5062123;27;87053;-58
2023/01/05 11:24:27;;;;;;;1.47;0.50;;;;;;;;;;5060726;27;88018;-58
2023/01/05 11:26:58;;;;;;;4.20;0.77;;;;;;;;;;5061438;27;87819;-58
2023/01/05 11:29:26;;;;;;;3.03;1.17;;;;;;;;;;5061646;27;87020;-58
2023/01/05 11:31:55;;;;;;;0.90;0.43;;;;;;;;;;5062308;27;86277;-58
2023/01/05 11:34:31;;;;;;;1.93;0.57;;;;;;;;;;5061772;27;88303;-57
2023/01/05 11:37:00;;;;;;;0.53;0.40;;;;;;;;;;5061165;27;88877;-60
2023/01/05 11:39:35;;;;;;;2.00;0.57;;;;;;;;;;5060963;27;87875;-58
2023/01/05 11:42:15;;;;;;;0.73;0.30;;;;;;;;;;5061251;27;87017;-58
2023/01/05 11:44:51;;;;;;;2.23;0.60;;;;;;;;;;5061569;27;88047;-62
2023/01/05 11:47:21;;;;;;;1.23;0.50;;;;;;;;;;5061869;27;88041;-58
2023/01/05 11:49:49;;;;;;;1.00;0.53;;;;;;;;;;5061578;27;87132;-58
2023/01/05 11:52:26;;;;;;;1.57;0.87;;;;;;;;;;5061677;27;87088;-58
2023/01/05 11:54:54;;;;;;;1.27;0.57;;;;;;;;;;5060968;27;89182;-58
2023/01/05 11:57:25;;;;;;;2.27;0.60;;;;;;;;;;5061525;27;88878;-58
2023/01/05 11:59:57;;;;;;;1.83;0.67;;;;;;;;;;5061422;27;87155;-58
2023/01/05 12:02:48;;;;;;;0.87;0.60;;;;;;;;;;5060487;27;87059;-58
2023/01/05 12:05:34;;;;;;;2.00;0.70;;;;;;;;;;5060811;27;90280;-58
2023/01/05 12:08:06;;;;;;;1.80;0.50;;;;;;;;;;5060900;27;89884;-58
2023/01/05 12:10:42;;;;;;;0.43;0.43;;;;;;;;;;5060789;27;86958;-57
2023/01/05 12:13:16;;;;;;;2.60;0.70;;;;;;;;;;5059224;27;86971;-58
2023/01/05 12:15:50;;;;;;;0.47;0.47;;;;;;;;;;5060414;27;88085;-59
2023/01/05 12:18:39;;;;;;;1.33;0.57;;;;;;;;;;5060218;27;89008;-58
2023/01/05 12:21:08;;;;;;;3.23;1.07;;;;;;;;;;5059520;27;87070;-61
2023/01/05 12:23:46;;;;;;;1.20;0.53;;;;;;;;;;5060481;27;86767;-59
2023/01/05 12:26:17;;;;;;;1.07;0.50;;;;;;;;;;5060847;27;89230;-60
2023/01/05 12:28:54;;;;;;;2.37;0.80;;;;;;;;;;5060685;27;88712;-60
2023/01/05 12:31:47;;;;;;;1.53;1.10;;;;;;;;;;5059774;27;87931;-60
2023/01/05 12:34:38;;;;;;;2.23;1.30;;;;;;;;;;5060927;27;87103;-59
2023/01/05 12:37:15;;;;;;;2.50;0.90;;;;;;;;;;5063850;27;89172;-61
2023/01/05 12:39:58;;;;;;;3.33;0.77;;;;;;;;;;5063530;27;87777;-60
2023/01/05 12:42:30;;;;;;;2.00;0.40;;;;;;;;;;5051516;27;86998;-59
2023/01/05 12:45:04;;;;;;;3.20;0.90;;;;;;;;;;5064325;27;87017;-60
2023/01/05 12:47:40;;;;;;;7.10;1.07;;;;;;;;;;5064166;27;88151;-59
2023/01/05 12:50:14;;;;;;;0.93;0.53;;;;;;;;;;5063984;27;89022;-60
2023/01/05 12:52:42;;;;;;;1.80;0.63;;;;;;;;;;5063660;27;87106;-60
2023/01/05 12:55:13;;;;;;;3.53;0.70;;;;;;;;;;5063985;27;86914;-60
2023/01/05 12:57:41;;;;;;;2.37;0.60;;;;;;;;;;5063627;27;89183;-60
2023/01/05 13:00:12;;;;;;;1.87;0.70;;;;;;;;;;5063527;27;89818;-60
2023/01/05 13:02:41;;;;;;;1.80;0.53;;;;;;;;;;5062889;27;87057;-60
2023/01/05 13:05:11;;;;;;;1.17;0.57;;;;;;;;;;5063561;27;87040;-60
2023/01/05 13:07:41;;;;;;;0.50;0.50;;;;;;;;;;5063425;27;87944;-60
2023/01/05 13:10:14;;;;;;;2.10;0.80;;;;;;;;;;5063759;27;88109;-60
2023/01/05 13:12:42;;;;;;;1.47;0.53;;;;;;;;;;5064015;27;86952;-59
2023/01/05 13:15:17;;;;;;;2.93;1.10;;;;;;;;;;5064407;27;86261;-60
2023/01/05 13:17:46;;;;;;;1.77;0.60;;;;;;;;;;5064339;27;89127;-60
2023/01/05 13:20:25;;;;;;;0.57;0.47;;;;;;;;;;5063497;27;88617;-60
2023/01/05 13:22:55;;;;;;;1.67;1.00;;;;;;;;;;5062859;27;88107;-59
2023/01/05 13:25:24;;;;;;;2.43;0.70;;;;;;;;;;5063344;27;87939;-61
2023/01/05 13:27:53;;;;;;;3.30;1.27;;;;;;;;;;5062723;27;89326;-60
2023/01/05 13:30:23;;;;;;;1.20;0.50;;;;;;;;;;5063485;27;87057;-61
2023/01/05 13:32:58;;;;;;;0.67;0.40;;;;;;;;;;5063592;27;87071;-60
2023/01/05 13:35:30;;;;;;;2.77;0.30;;;;;;;;;;5063221;27;86990;-60
2023/01/05 13:38:19;;;;;;;1.10;0.50;;;;;;;;;;5063127;27;90174;-60
2023/01/05 13:41:02;;;;;;;1.43;0.50;;;;;;;;;;5030051;27;88994;-60
2023/01/05 13:43:44;;;;;;;1.03;0.50;;;;;;;;;;5063872;27;87069;-60
2023/01/05 13:46:20;;;;;;;1.50;0.67;;;;;;;;;;5062980;27;86991;-59
2023/01/05 13:49:07;;;;;;;1.97;0.53;;;;;;;;;;5062530;27;89092;-60
2023/01/05 13:51:39;;;;;;;3.70;0.97;;;;;;;;;;5062629;27;89943;-59
2023/01/05 13:54:10;;;;;;;4.27;1.00;;;;;;;;;;5062953;27;87008;-59
2023/01/05 13:56:41;;;;;;;1.77;0.97;;;;;;;;;;5062906;27;87078;-59
2023/01/05 13:59:15;;;;;;;3.87;0.87;;;;;;;;;;5062817;27;88956;-58
2023/01/05 14:02:04;;;;;;;0.67;0.47;;;;;;;;;;5063232;27;87840;-59
2023/01/05 14:04:34;;;;;;;3.83;0.80;;;;;;;;;;5063320;27;87076;-59
2023/01/05 14:07:03;;;;;;;1.67;0.97;;;;;;;;;;5063438;27;87310;-58
2023/01/05 14:09:33;;;;;;;0.93;0.63;;;;;;;;;;5062351;27;89023;-59
2023/01/05 14:12:20;;;;;;;3.33;1.10;;;;;;;;;;5062779;27;87888;-59
2023/01/05 14:15:11;;;;;;;1.83;0.60;;;;;;;;;;5062462;27;87924;-58
2023/01/05 14:17:52;;;;;;;1.43;0.83;;;;;;;;;;5029864;27;87220;-58
2023/01/05 14:20:30;;;;;;;3.90;0.60;;;;;;;;;;5063148;27;90434;-59
2023/01/05 14:22:58;;;;;;;0.40;0.40;;;;;;;;;;5062341;27;87921;-60
2023/01/05 14:25:45;;;;;;;1.57;0.97;;;;;;;;;;5063354;27;87177;-59
2023/01/05 14:28:24;;;;;;;2.97;0.60;;;;;;;;;;5062574;27;87108;-58
2023/01/05 14:30:52;;;;;;;4.63;0.40;;;;;;;;;;5062955;27;88570;-59
2023/01/05 14:33:22;;;;;;;0.57;0.37;;;;;;;;;;5062979;27;89291;-59
2023/01/05 14:35:50;;;;;;;0.30;0.30;;;;;;;;;;5062717;27;87176;-60
2023/01/05 14:38:20;;;;;;;0.90;0.90;;;;;;;;;;5062448;27;87106;-59
2023/01/05 14:40:50;;;;;;;1.53;0.67;;;;;;;;;;5062110;27;87958;-58
2023/01/05 14:43:22;;;;;;;0.73;0.30;;;;;;;;;;5061512;27;89958;-59
2023/01/05 14:45:58;;;;;;;1.90;0.90;;;;;;;;;;5062668;27;87041;-59
2023/01/05 14:48:30;;;;;;;0.63;0.53;;;;;;;;;;5062764;27;87086;-58
2023/01/05 14:51:08;;;;;;;1.80;0.70;;;;;;;;;;5061658;27;88133;-59
2023/01/05 14:53:40;;;;;;;2.70;0.73;;;;;;;;;;5060723;27;87835;-59
2023/01/05 14:56:19;;;;;;;2.53;0.57;;;;;;;;;;5062375;27;87025;-59
2023/01/05 14:58:50;;;;;;;1.17;0.70;;;;;;;;;;5061262;27;87056;-58
2023/01/05 15:01:19;;;;;;;4.07;1.17;;;;;;;;;;5061878;27;88089;-59
2023/01/05 15:03:51;;;;;;;3.23;0.70;;;;;;;;;;5061588;27;87540;-59
2023/01/05 15:06:20;;;;;;;2.70;0.60;;;;;;;;;;5061293;27;87870;-59
2023/01/05 15:09:14;;;;;;;0.73;0.63;;;;;;;;;;5062179;27;87121;-60
2023/01/05 15:11:46;;;;;;;1.33;0.90;;;;;;;;;;5061733;27;89064;-59
2023/01/05 15:14:34;;;;;;;0.93;0.40;;;;;;;;;;5061885;27;88776;-58
2023/01/05 15:17:27;;;;;;;3.27;0.70;;;;;;;;;;5061918;27;87095;-59
2023/01/05 15:20:03;;;;;;;1.67;1.10;;;;;;;;;;5041846;27;87054;-59
2023/01/05 15:22:41;;;;;;;2.73;0.57;;;;;;;;;;5061114;27;89074;-60
2023/01/05 15:25:24;;;;;;;2.43;0.73;;;;;;;;;;5061914;27;87933;-58
2023/01/05 15:27:54;;;;;;;2.10;0.60;;;;;;;;;;5045510;27;87031;-59
2023/01/05 15:30:27;;;;;;;0.70;0.40;;;;;;;;;;5061632;27;86966;-57
2023/01/05 15:32:58;;;;;;;0.40;0.40;;;;;;;;;;5060883;27;89056;-58
2023/01/05 15:35:29;;;;;;;1.80;0.47;;;;;;;;;;5061476;27;88629;-59
2023/01/05 15:37:58;;;;;;;0.37;0.30;;;;;;;;;;5061581;27;87149;-60
2023/01/05 15:40:27;;;;;;;1.17;0.87;;;;;;;;;;5061639;27;87041;-58